Time,TemperatureF,DewpointF,PressureIn,WindDirection,WindDirectionDegrees,WindSpeedMPH,WindSpeedGustMPH,Humidity,HourlyPrecipIn,Conditions,Clouds,dailyrainin,SoftwareType,DateUTC
2013-08-02 00:03:00,61.9,57.6,29.69,ENE,68,2.0,2.0,86,0.00,,,0.39,meteohub,2013-08-01 23:03:00,
2013-08-02 00:11:00,61.3,57.2,29.69,ENE,68,0.0,2.0,86,0.00,,,0.00,meteohub,2013-08-01 23:11:00,
2013-08-02 00:16:00,61.3,57.2,29.69,SE,135,0.0,2.0,86,0.00,,,0.00,meteohub,2013-08-01 23:16:00,
2013-08-02 00:22:00,61.3,57.4,29.69,South,180,0.0,2.0,87,0.00,,,0.00,meteohub,2013-08-01 23:22:00,
2013-08-02 00:27:00,61.5,57.9,29.69,South,180,2.0,2.0,88,0.00,,,0.00,meteohub,2013-08-01 23:27:00,
2013-08-02 00:32:00,61.5,57.9,29.69,South,180,2.0,2.0,88,0.00,,,0.00,meteohub,2013-08-01 23:32:00,
2013-08-02 00:38:00,61.5,57.9,29.69,East,90,0.0,2.0,88,0.00,,,0.00,meteohub,2013-08-01 23:38:00,
2013-08-02 00:44:00,61.2,57.6,29.69,ENE,68,3.0,3.0,88,0.00,,,0.00,meteohub,2013-08-01 23:44:00,
2013-08-02 00:50:00,61.0,57.0,29.69,NE,45,4.0,4.0,87,0.00,,,0.00,meteohub,2013-08-01 23:50:00,
2013-08-02 00:55:00,60.8,56.8,29.69,ENE,68,3.0,6.0,87,0.00,,,0.00,meteohub,2013-08-01 23:55:00,
2013-08-02 01:03:00,60.8,57.2,29.69,ENE,68,3.0,6.0,88,0.00,,,0.00,meteohub,2013-08-02 00:03:00,
2013-08-02 01:08:00,60.8,57.2,29.69,NE,45,2.0,6.0,88,0.00,,,0.00,meteohub,2013-08-02 00:08:00,
2013-08-02 01:13:00,60.4,56.8,29.69,ENE,68,4.0,4.0,88,0.00,,,0.00,meteohub,2013-08-02 00:13:00,
2013-08-02 01:19:00,60.1,56.5,29.66,East,90,1.0,5.0,88,0.00,,,0.00,meteohub,2013-08-02 00:19:00,
2013-08-02 01:25:00,60.1,56.5,29.66,NNE,22,1.0,5.0,88,0.00,,,0.00,meteohub,2013-08-02 00:25:00,
2013-08-02 01:30:00,60.1,56.8,29.66,NE,45,2.0,3.0,89,0.00,,,0.00,meteohub,2013-08-02 00:30:00,
2013-08-02 01:35:00,60.1,56.8,29.66,ENE,68,3.0,3.0,89,0.00,,,0.00,meteohub,2013-08-02 00:35:00,
2013-08-02 01:43:00,59.9,56.7,29.66,NE,45,2.0,4.0,89,0.00,,,0.00,meteohub,2013-08-02 00:43:00,
2013-08-02 01:48:00,60.1,56.8,29.66,WNW,292,6.0,6.0,89,0.00,,,0.00,meteohub,2013-08-02 00:48:00,
2013-08-02 01:54:00,60.4,57.6,29.66,SE,135,4.0,8.0,90,0.00,,,0.00,meteohub,2013-08-02 00:54:00,
2013-08-02 02:01:00,60.4,57.6,29.66,SW,225,2.0,8.0,90,0.00,,,0.00,meteohub,2013-08-02 01:01:00,
2013-08-02 02:08:00,60.6,57.7,29.66,West,270,3.0,4.0,90,0.00,,,0.00,meteohub,2013-08-02 01:08:00,
2013-08-02 02:15:00,60.6,57.9,29.66,SSE,158,2.0,4.0,91,0.00,,,0.00,meteohub,2013-08-02 01:15:00,
2013-08-02 02:21:00,60.3,57.4,29.66,WNW,292,0.0,4.0,90,0.00,,,0.00,meteohub,2013-08-02 01:21:00,
2013-08-02 02:27:00,60.1,57.2,29.66,South,180,4.0,4.0,90,0.00,,,0.00,meteohub,2013-08-02 01:27:00,
2013-08-02 02:32:00,59.9,57.0,29.66,SE,135,2.0,4.0,90,0.00,,,0.00,meteohub,2013-08-02 01:32:00,
2013-08-02 02:39:00,59.7,56.8,29.66,NE,45,2.0,4.0,90,0.00,,,0.00,meteohub,2013-08-02 01:39:00,
2013-08-02 02:45:00,59.7,56.8,29.66,NW,315,3.0,4.0,90,0.00,,,0.00,meteohub,2013-08-02 01:45:00,
2013-08-02 02:51:00,59.7,57.0,29.66,NW,315,1.0,3.0,91,0.00,,,0.00,meteohub,2013-08-02 01:51:00,
2013-08-02 02:56:00,59.7,57.0,29.66,WSW,248,2.0,3.0,91,0.00,,,0.00,meteohub,2013-08-02 01:56:00,
2013-08-02 03:01:00,59.7,57.0,29.66,WSW,248,2.0,2.0,91,0.00,,,0.00,meteohub,2013-08-02 02:01:00,
2013-08-02 03:07:00,59.5,56.8,29.66,SW,225,1.0,2.0,91,0.00,,,0.00,meteohub,2013-08-02 02:07:00,
2013-08-02 03:14:00,59.5,56.8,29.66,SSW,202,2.0,3.0,91,0.00,,,0.00,meteohub,2013-08-02 02:14:00,
2013-08-02 03:24:00,59.4,56.7,29.63,SSW,202,0.0,3.0,91,0.00,,,0.00,meteohub,2013-08-02 02:24:00,
2013-08-02 03:29:00,60.1,57.7,29.63,SW,225,2.0,4.0,92,0.00,,,0.00,meteohub,2013-08-02 02:29:00,
2013-08-02 03:34:00,60.3,57.9,29.63,SW,225,2.0,6.0,92,0.00,,,0.00,meteohub,2013-08-02 02:34:00,
2013-08-02 03:42:00,60.3,57.9,29.63,SSW,202,2.0,6.0,92,0.00,,,0.00,meteohub,2013-08-02 02:42:00,
2013-08-02 03:49:00,60.3,57.9,29.63,WSW,248,2.0,4.0,92,0.00,,,0.00,meteohub,2013-08-02 02:49:00,
2013-08-02 03:55:00,60.1,57.7,29.63,North,0,0.0,4.0,92,0.00,,,0.00,meteohub,2013-08-02 02:55:00,
2013-08-02 04:01:00,59.9,57.6,29.63,West,270,0.0,4.0,92,0.00,,,0.00,meteohub,2013-08-02 03:01:00,
2013-08-02 04:06:00,59.7,57.4,29.63,WNW,292,2.0,3.0,92,0.00,,,0.00,meteohub,2013-08-02 03:06:00,
2013-08-02 04:12:00,59.7,57.4,29.63,NNE,22,2.0,3.0,92,0.00,,,0.00,meteohub,2013-08-02 03:12:00,
2013-08-02 04:18:00,59.4,57.0,29.63,North,0,1.0,3.0,92,0.00,,,0.00,meteohub,2013-08-02 03:18:00,
2013-08-02 04:23:00,59.2,56.5,29.63,WSW,248,2.0,3.0,91,0.00,,,0.00,meteohub,2013-08-02 03:23:00,
2013-08-02 04:28:00,59.4,57.0,29.63,SW,225,3.0,4.0,92,0.00,,,0.00,meteohub,2013-08-02 03:28:00,
2013-08-02 04:34:00,59.5,57.2,29.63,South,180,5.0,5.0,92,0.00,,,0.00,meteohub,2013-08-02 03:34:00,
2013-08-02 04:39:00,59.5,57.2,29.63,SSW,202,6.0,6.0,92,0.00,,,0.00,meteohub,2013-08-02 03:39:00,
2013-08-02 04:44:00,59.9,57.6,29.63,South,180,8.0,8.0,92,0.00,,,0.00,meteohub,2013-08-02 03:44:00,
2013-08-02 04:49:00,60.3,58.3,29.63,South,180,6.0,8.0,93,0.00,,,0.00,meteohub,2013-08-02 03:49:00,
2013-08-02 04:55:00,60.6,58.6,29.63,SW,225,4.0,9.0,93,0.00,,,0.00,meteohub,2013-08-02 03:55:00,
2013-08-02 05:02:00,60.8,58.8,29.63,SW,225,3.0,9.0,93,0.00,,,0.00,meteohub,2013-08-02 04:02:00,
2013-08-02 05:04:00,61.2,59.2,29.63,SW,225,6.0,9.0,93,0.00,,,0.00,meteohub,2013-08-02 04:04:00,
2013-08-02 05:07:00,61.3,59.4,29.63,WSW,248,5.0,6.0,93,0.00,,,0.00,meteohub,2013-08-02 04:07:00,
2013-08-02 05:11:00,61.7,59.4,29.63,SW,225,6.0,7.0,92,0.00,,,0.00,meteohub,2013-08-02 04:11:00,
2013-08-02 05:16:00,61.9,59.2,29.63,SW,225,6.0,7.0,91,0.00,,,0.00,meteohub,2013-08-02 04:16:00,
2013-08-02 05:21:00,62.2,59.4,29.63,SW,225,2.0,7.0,90,0.00,,,0.00,meteohub,2013-08-02 04:21:00,
2013-08-02 05:26:00,62.2,59.0,29.63,WSW,248,5.0,8.0,89,0.00,,,0.00,meteohub,2013-08-02 04:26:00,
2013-08-02 05:31:00,62.4,58.8,29.63,South,180,6.0,8.0,88,0.00,,,0.00,meteohub,2013-08-02 04:31:00,
2013-08-02 05:37:00,62.4,58.5,29.63,SSW,202,4.0,8.0,87,0.00,,,0.00,meteohub,2013-08-02 04:37:00,
2013-08-02 05:42:00,62.4,58.5,29.63,SW,225,3.0,6.0,87,0.00,,,0.00,meteohub,2013-08-02 04:42:00,
2013-08-02 05:47:00,62.6,58.3,29.63,SW,225,3.0,6.0,86,0.00,,,0.00,meteohub,2013-08-02 04:47:00,
2013-08-02 05:52:00,62.4,58.1,29.63,SW,225,4.0,5.0,86,0.00,,,0.00,meteohub,2013-08-02 04:52:00,
2013-08-02 05:57:00,62.4,58.1,29.63,West,270,0.0,5.0,86,0.00,,,0.00,meteohub,2013-08-02 04:57:00,
2013-08-02 06:03:00,62.4,58.1,29.63,SE,135,0.0,5.0,86,0.00,,,0.00,meteohub,2013-08-02 05:03:00,
2013-08-02 06:08:00,62.4,58.1,29.63,SSE,158,2.0,5.0,86,0.00,,,0.00,meteohub,2013-08-02 05:08:00,
2013-08-02 06:13:00,62.2,57.7,29.63,South,180,0.0,3.0,85,0.00,,,0.00,meteohub,2013-08-02 05:13:00,
2013-08-02 06:18:00,62.2,57.7,29.63,SSE,158,4.0,4.0,85,0.00,,,0.00,meteohub,2013-08-02 05:18:00,
2013-08-02 06:23:00,62.1,57.6,29.63,WSW,248,6.0,6.0,85,0.00,,,0.00,meteohub,2013-08-02 05:23:00,
2013-08-02 06:28:00,62.2,57.9,29.60,SSW,202,7.0,8.0,86,0.00,,,0.00,meteohub,2013-08-02 05:28:00,
2013-08-02 06:34:00,62.2,57.9,29.60,South,180,6.0,8.0,86,0.00,,,0.00,meteohub,2013-08-02 05:34:00,
2013-08-02 06:39:00,62.2,57.9,29.60,South,180,6.0,9.0,86,0.00,,,0.00,meteohub,2013-08-02 05:39:00,
2013-08-02 06:44:00,62.4,58.1,29.60,SSW,202,6.0,9.0,86,0.00,,,0.00,meteohub,2013-08-02 05:44:00,
2013-08-02 06:49:00,62.4,58.1,29.60,South,180,6.0,9.0,86,0.00,,,0.00,meteohub,2013-08-02 05:49:00,
2013-08-02 06:54:00,62.4,58.5,29.60,South,180,4.0,9.0,87,0.00,,,0.00,meteohub,2013-08-02 05:54:00,
2013-08-02 06:59:00,62.4,58.5,29.60,South,180,6.0,9.0,87,0.00,,,0.00,meteohub,2013-08-02 05:59:00,
2013-08-02 07:04:00,62.4,58.5,29.60,WSW,248,6.0,9.0,87,0.00,,,0.00,meteohub,2013-08-02 06:04:00,
2013-08-02 07:10:00,62.4,58.5,29.60,SSW,202,3.0,9.0,87,0.00,,,0.00,meteohub,2013-08-02 06:10:00,
2013-08-02 07:15:00,62.4,58.5,29.63,South,180,3.0,9.0,87,0.00,,,0.00,meteohub,2013-08-02 06:15:00,
2013-08-02 07:20:00,62.6,58.6,29.63,South,180,3.0,8.0,87,0.00,,,0.00,meteohub,2013-08-02 06:20:00,
2013-08-02 07:25:00,62.6,58.6,29.63,South,180,3.0,5.0,87,0.00,,,0.00,meteohub,2013-08-02 06:25:00,
2013-08-02 07:31:00,62.6,58.6,29.60,SE,135,3.0,5.0,87,0.00,,,0.00,meteohub,2013-08-02 06:31:00,
2013-08-02 07:36:00,62.8,58.8,29.60,South,180,5.0,5.0,87,0.00,,,0.00,meteohub,2013-08-02 06:36:00,
2013-08-02 07:41:00,62.8,58.8,29.60,SSW,202,0.0,5.0,87,0.00,,,0.00,meteohub,2013-08-02 06:41:00,
2013-08-02 07:46:00,62.8,58.8,29.60,SSW,202,0.0,5.0,87,0.00,,,0.00,meteohub,2013-08-02 06:46:00,
2013-08-02 07:51:00,63.0,59.0,29.60,South,180,0.0,5.0,87,0.00,,,0.00,meteohub,2013-08-02 06:51:00,
2013-08-02 07:56:00,63.0,59.0,29.60,South,180,2.0,4.0,87,0.00,,,0.00,meteohub,2013-08-02 06:56:00,
2013-08-02 08:01:00,63.1,59.2,29.63,South,180,0.0,3.0,87,0.00,,,0.00,meteohub,2013-08-02 07:01:00,
2013-08-02 08:06:00,63.1,59.2,29.63,SSE,158,2.0,3.0,87,0.00,,,0.00,meteohub,2013-08-02 07:06:00,
2013-08-02 08:11:00,63.3,59.4,29.63,SSE,158,4.0,4.0,87,0.00,,,0.00,meteohub,2013-08-02 07:11:00,
2013-08-02 08:16:00,63.3,59.4,29.60,South,180,4.0,6.0,87,0.00,,,0.00,meteohub,2013-08-02 07:16:00,
2013-08-02 08:21:00,63.5,59.5,29.60,SSE,158,4.0,6.0,87,0.00,,,0.00,meteohub,2013-08-02 07:21:00,
2013-08-02 08:26:00,63.5,59.5,29.60,South,180,7.0,7.0,87,0.01,,,0.01,meteohub,2013-08-02 07:26:00,
2013-08-02 08:31:00,63.5,59.9,29.63,SSW,202,8.0,8.0,88,0.01,,,0.01,meteohub,2013-08-02 07:31:00,
2013-08-02 08:37:00,63.3,59.7,29.63,South,180,8.0,10.0,88,0.01,,,0.01,meteohub,2013-08-02 07:37:00,
2013-08-02 08:42:00,63.3,59.7,29.63,SSW,202,11.0,13.0,88,0.01,,,0.01,meteohub,2013-08-02 07:42:00,
2013-08-02 08:47:00,63.1,59.2,29.63,SSW,202,10.0,15.0,87,0.01,,,0.01,meteohub,2013-08-02 07:47:00,
2013-08-02 08:52:00,63.3,58.1,29.63,SSW,202,11.0,15.0,83,0.01,,,0.01,meteohub,2013-08-02 07:52:00,
2013-08-02 08:57:00,63.7,57.7,29.63,South,180,6.0,18.0,81,0.01,,,0.01,meteohub,2013-08-02 07:57:00,
2013-08-02 09:02:00,63.9,57.6,29.63,South,180,17.0,18.0,80,0.01,,,0.01,meteohub,2013-08-02 08:02:00,
2013-08-02 09:07:00,63.9,57.6,29.63,SSE,158,15.0,18.0,80,0.01,,,0.01,meteohub,2013-08-02 08:07:00,
2013-08-02 09:12:00,64.0,56.7,29.63,South,180,18.0,18.0,77,0.01,,,0.01,meteohub,2013-08-02 08:12:00,
2013-08-02 09:17:00,64.2,56.8,29.63,SSE,158,8.0,18.0,77,0.01,,,0.01,meteohub,2013-08-02 08:17:00,
2013-08-02 09:22:00,64.2,56.8,29.63,South,180,9.0,18.0,77,0.00,,,0.01,meteohub,2013-08-02 08:22:00,
2013-08-02 09:27:00,64.4,57.0,29.63,South,180,9.0,18.0,77,0.00,,,0.01,meteohub,2013-08-02 08:27:00,
2013-08-02 09:33:00,64.8,57.7,29.63,South,180,6.0,13.0,78,0.00,,,0.01,meteohub,2013-08-02 08:33:00,
2013-08-02 09:38:00,64.8,57.7,29.63,SSE,158,4.0,13.0,78,0.00,,,0.01,meteohub,2013-08-02 08:38:00,
2013-08-02 09:43:00,64.9,57.9,29.63,SSE,158,4.0,11.0,78,0.00,,,0.01,meteohub,2013-08-02 08:43:00,
2013-08-02 09:48:00,64.6,57.2,29.63,South,180,10.0,10.0,77,0.00,,,0.01,meteohub,2013-08-02 08:48:00,
2013-08-02 09:53:00,64.8,55.2,29.63,South,180,16.0,16.0,71,0.00,,,0.01,meteohub,2013-08-02 08:53:00,
2013-08-02 09:58:00,65.1,54.3,29.63,South,180,17.0,17.0,68,0.00,,,0.01,meteohub,2013-08-02 08:58:00,
2013-08-02 10:03:00,65.7,53.2,29.63,South,180,11.0,31.0,64,0.00,,,0.01,meteohub,2013-08-02 09:03:00,
2013-08-02 10:08:00,66.4,55.0,29.63,SSW,202,9.0,31.0,67,0.00,,,0.01,meteohub,2013-08-02 09:08:00,
2013-08-02 10:13:00,66.4,52.2,29.63,South,180,11.0,31.0,60,0.00,,,0.01,meteohub,2013-08-02 09:13:00,
2013-08-02 10:18:00,66.4,51.6,29.63,SSW,202,16.0,18.0,59,0.00,,,0.01,meteohub,2013-08-02 09:18:00,
2013-08-02 10:23:00,66.2,50.5,29.63,South,180,15.0,20.0,57,0.00,,,0.01,meteohub,2013-08-02 09:23:00,
2013-08-02 10:28:00,66.6,48.9,29.63,South,180,9.0,25.0,53,0.00,,,0.01,meteohub,2013-08-02 09:28:00,
2013-08-02 10:34:00,66.9,46.0,29.63,South,180,16.0,25.0,47,0.00,,,0.01,meteohub,2013-08-02 09:34:00,
2013-08-02 10:39:00,66.7,45.3,29.63,SSW,202,17.0,25.0,46,0.00,,,0.01,meteohub,2013-08-02 09:39:00,
2013-08-02 10:44:00,66.7,44.8,29.63,SSW,202,9.0,24.0,45,0.00,,,0.01,meteohub,2013-08-02 09:44:00,
2013-08-02 10:49:00,66.9,45.0,29.63,SSW,202,17.0,22.0,45,0.00,,,0.01,meteohub,2013-08-02 09:49:00,
2013-08-02 10:55:00,66.7,43.5,29.63,SSW,202,13.0,21.0,43,0.00,,,0.01,meteohub,2013-08-02 09:55:00,
2013-08-02 11:00:00,67.6,45.0,29.63,South,180,11.0,21.0,44,0.00,,,0.01,meteohub,2013-08-02 10:00:00,
2013-08-02 11:05:00,68.5,46.4,29.63,SSW,202,10.0,21.0,45,0.00,,,0.01,meteohub,2013-08-02 10:05:00,
2013-08-02 11:10:00,69.4,46.6,29.63,SSW,202,10.0,21.0,44,0.00,,,0.01,meteohub,2013-08-02 10:10:00,
2013-08-02 11:15:00,68.5,41.2,29.63,SSW,202,15.0,21.0,37,0.00,,,0.01,meteohub,2013-08-02 10:15:00,
2013-08-02 11:20:00,68.5,43.3,29.63,SSE,158,17.0,21.0,40,0.00,,,0.01,meteohub,2013-08-02 10:20:00,
2013-08-02 11:25:00,69.1,43.2,29.63,South,180,19.0,23.0,39,0.00,,,0.01,meteohub,2013-08-02 10:25:00,
2013-08-02 11:30:00,68.9,40.1,29.63,SSW,202,9.0,23.0,35,0.00,,,0.01,meteohub,2013-08-02 10:30:00,
2013-08-02 11:35:00,68.2,38.8,29.63,South,180,13.0,23.0,34,0.00,,,0.01,meteohub,2013-08-02 10:35:00,
2013-08-02 11:40:00,68.9,40.8,29.63,SSW,202,14.0,23.0,36,0.00,,,0.01,meteohub,2013-08-02 10:40:00,
2013-08-02 11:46:00,69.1,40.3,29.63,SSW,202,15.0,24.0,35,0.00,,,0.01,meteohub,2013-08-02 10:46:00,
2013-08-02 11:51:00,68.7,39.2,29.63,SW,225,12.0,24.0,34,0.00,,,0.01,meteohub,2013-08-02 10:51:00,
2013-08-02 11:56:00,68.4,39.7,29.63,South,180,15.0,24.0,35,0.00,,,0.01,meteohub,2013-08-02 10:56:00,
2013-08-02 12:01:00,68.2,40.3,29.66,SSW,202,11.0,19.0,36,0.00,,,0.01,meteohub,2013-08-02 11:01:00,
2013-08-02 12:06:00,67.8,39.2,29.66,SSW,202,6.0,15.0,35,0.00,,,0.01,meteohub,2013-08-02 11:06:00,
2013-08-02 12:11:00,67.8,39.9,29.66,SSW,202,9.0,15.0,36,0.00,,,0.01,meteohub,2013-08-02 11:11:00,
2013-08-02 12:16:00,67.6,39.0,29.63,South,180,18.0,21.0,35,0.00,,,0.01,meteohub,2013-08-02 11:16:00,
2013-08-02 12:21:00,67.8,38.5,29.63,SSW,202,15.0,25.0,34,0.00,,,0.01,meteohub,2013-08-02 11:21:00,
2013-08-02 12:26:00,68.2,39.6,29.63,South,180,8.0,25.0,35,0.00,,,0.01,meteohub,2013-08-02 11:26:00,
2013-08-02 12:31:00,68.2,39.6,29.63,SSW,202,11.0,25.0,35,0.00,,,0.01,meteohub,2013-08-02 11:31:00,
2013-08-02 12:36:00,68.0,39.4,29.63,South,180,17.0,19.0,35,0.00,,,0.01,meteohub,2013-08-02 11:36:00,
2013-08-02 12:41:00,67.8,38.5,29.63,South,180,11.0,21.0,34,0.00,,,0.01,meteohub,2013-08-02 11:41:00,
2013-08-02 12:46:00,68.0,38.7,29.63,SSW,202,15.0,21.0,34,0.00,,,0.01,meteohub,2013-08-02 11:46:00,
2013-08-02 12:52:00,67.8,38.5,29.63,South,180,12.0,21.0,34,0.00,,,0.01,meteohub,2013-08-02 11:52:00,
2013-08-02 12:57:00,67.6,38.3,29.63,South,180,16.0,24.0,34,0.00,,,0.01,meteohub,2013-08-02 11:57:00,
2013-08-02 13:02:00,67.8,39.2,29.63,SSW,202,13.0,24.0,35,0.00,,,0.01,meteohub,2013-08-02 12:02:00,
2013-08-02 13:07:00,67.8,38.5,29.63,South,180,17.0,24.0,34,0.00,,,0.01,meteohub,2013-08-02 12:07:00,
2013-08-02 13:12:00,67.8,39.2,29.63,South,180,10.0,20.0,35,0.00,,,0.01,meteohub,2013-08-02 12:12:00,
2013-08-02 13:18:00,67.8,38.5,29.66,SSW,202,13.0,22.0,34,0.00,,,0.01,meteohub,2013-08-02 12:18:00,
2013-08-02 13:23:00,67.6,39.0,29.66,SSW,202,14.0,22.0,35,0.00,,,0.01,meteohub,2013-08-02 12:23:00,
2013-08-02 13:28:00,67.6,39.7,29.63,South,180,15.0,22.0,36,0.00,,,0.01,meteohub,2013-08-02 12:28:00,
2013-08-02 13:33:00,67.6,39.0,29.63,South,180,8.0,19.0,35,0.00,,,0.01,meteohub,2013-08-02 12:33:00,
2013-08-02 13:38:00,67.6,38.3,29.63,SSW,202,12.0,19.0,34,0.00,,,0.01,meteohub,2013-08-02 12:38:00,
2013-08-02 13:44:00,67.8,39.2,29.63,South,180,11.0,17.0,35,0.00,,,0.01,meteohub,2013-08-02 12:44:00,
2013-08-02 13:49:00,67.8,39.2,29.63,South,180,8.0,17.0,35,0.00,,,0.01,meteohub,2013-08-02 12:49:00,
2013-08-02 13:54:00,67.8,37.8,29.63,SSW,202,15.0,18.0,33,0.00,,,0.01,meteohub,2013-08-02 12:54:00,
2013-08-02 14:00:00,67.5,38.1,29.66,SW,225,17.0,26.0,34,0.00,,,0.01,meteohub,2013-08-02 13:00:00,
2013-08-02 14:05:00,67.5,38.8,29.66,South,180,11.0,26.0,35,0.00,,,0.01,meteohub,2013-08-02 13:05:00,
2013-08-02 14:10:00,67.5,38.1,29.66,SSW,202,11.0,23.0,34,0.00,,,0.01,meteohub,2013-08-02 13:10:00,
2013-08-02 14:15:00,67.5,38.8,29.63,SSW,202,8.0,19.0,35,0.00,,,0.01,meteohub,2013-08-02 13:15:00,
2013-08-02 14:21:00,67.6,38.3,29.63,South,180,17.0,21.0,34,0.00,,,0.01,meteohub,2013-08-02 13:21:00,
2013-08-02 14:26:00,67.6,38.3,29.63,South,180,14.0,21.0,34,0.00,,,0.01,meteohub,2013-08-02 13:26:00,
2013-08-02 14:31:00,67.6,38.3,29.63,SSW,202,19.0,21.0,34,0.00,,,0.01,meteohub,2013-08-02 13:31:00,
2013-08-02 14:36:00,67.6,37.6,29.63,SSW,202,13.0,20.0,33,0.00,,,0.01,meteohub,2013-08-02 13:36:00,
2013-08-02 14:41:00,68.2,37.9,29.63,South,180,22.0,24.0,33,0.00,,,0.01,meteohub,2013-08-02 13:41:00,
2013-08-02 14:46:00,67.8,37.8,29.63,South,180,21.0,27.0,33,0.00,,,0.01,meteohub,2013-08-02 13:46:00,
2013-08-02 14:52:00,68.9,38.7,29.63,South,180,20.0,27.0,33,0.00,,,0.01,meteohub,2013-08-02 13:52:00,
2013-08-02 14:57:00,69.3,37.4,29.63,South,180,25.0,27.0,31,0.00,,,0.01,meteohub,2013-08-02 13:57:00,
2013-08-02 15:02:00,69.8,39.4,29.66,South,180,21.0,26.0,33,0.00,,,0.01,meteohub,2013-08-02 14:02:00,
2013-08-02 15:07:00,70.5,40.1,29.66,South,180,25.0,26.0,33,0.00,,,0.01,meteohub,2013-08-02 14:07:00,
2013-08-02 15:12:00,70.7,39.4,29.66,South,180,23.0,27.0,32,0.00,,,0.01,meteohub,2013-08-02 14:12:00,
2013-08-02 15:17:00,70.5,39.2,29.63,SSW,202,22.0,27.0,32,0.00,,,0.01,meteohub,2013-08-02 14:17:00,
2013-08-02 15:23:00,69.1,37.9,29.63,SSE,158,22.0,27.0,32,0.00,,,0.01,meteohub,2013-08-02 14:23:00,
2013-08-02 15:28:00,68.4,37.4,29.66,South,180,17.0,26.0,32,0.00,,,0.01,meteohub,2013-08-02 14:28:00,
2013-08-02 15:34:00,68.2,37.9,29.66,SSE,158,18.0,26.0,33,0.00,,,0.01,meteohub,2013-08-02 14:34:00,
2013-08-02 15:39:00,69.1,38.8,29.66,South,180,25.0,26.0,33,0.00,,,0.01,meteohub,2013-08-02 14:39:00,
2013-08-02 15:44:00,69.1,37.2,29.66,South,180,15.0,27.0,31,0.00,,,0.01,meteohub,2013-08-02 14:44:00,
2013-08-02 15:49:00,68.4,37.4,29.66,South,180,21.0,28.0,32,0.00,,,0.01,meteohub,2013-08-02 14:49:00,
2013-08-02 15:54:00,68.4,37.4,29.66,South,180,17.0,28.0,32,0.00,,,0.01,meteohub,2013-08-02 14:54:00,
2013-08-02 15:59:00,68.2,36.5,29.66,South,180,15.0,28.0,31,0.00,,,0.01,meteohub,2013-08-02 14:59:00,
2013-08-02 16:04:00,68.0,37.9,29.66,South,180,23.0,31.0,33,0.00,,,0.01,meteohub,2013-08-02 15:04:00,
2013-08-02 16:09:00,68.9,38.7,29.66,South,180,19.0,31.0,33,0.00,,,0.01,meteohub,2013-08-02 15:09:00,
2013-08-02 16:14:00,68.4,37.4,29.66,SSW,202,26.0,31.0,32,0.00,,,0.01,meteohub,2013-08-02 15:14:00,
2013-08-02 16:19:00,68.7,38.5,29.66,South,180,22.0,27.0,33,0.00,,,0.01,meteohub,2013-08-02 15:19:00,
2013-08-02 16:24:00,69.3,39.0,29.66,South,180,20.0,31.0,33,0.00,,,0.01,meteohub,2013-08-02 15:24:00,
2013-08-02 16:30:00,68.5,36.0,29.66,South,180,15.0,31.0,30,0.00,,,0.01,meteohub,2013-08-02 15:30:00,
2013-08-02 16:35:00,69.4,38.3,29.66,South,180,28.0,28.0,32,0.00,,,0.01,meteohub,2013-08-02 15:35:00,
2013-08-02 16:40:00,69.4,38.3,29.66,SSW,202,15.0,28.0,32,0.00,,,0.01,meteohub,2013-08-02 15:40:00,
2013-08-02 16:45:00,69.4,38.3,29.66,SSW,202,26.0,28.0,32,0.00,,,0.01,meteohub,2013-08-02 15:45:00,
2013-08-02 16:50:00,69.8,38.7,29.66,SSW,202,17.0,28.0,32,0.00,,,0.01,meteohub,2013-08-02 15:50:00,
2013-08-02 16:55:00,70.0,36.3,29.66,South,180,26.0,28.0,29,0.00,,,0.01,meteohub,2013-08-02 15:55:00,
2013-08-02 17:00:00,70.3,38.3,29.66,South,180,18.0,28.0,31,0.00,,,0.01,meteohub,2013-08-02 16:00:00,
2013-08-02 17:05:00,70.0,34.5,29.66,SSW,202,29.0,29.0,27,0.00,,,0.01,meteohub,2013-08-02 16:05:00,
2013-08-02 17:10:00,69.8,33.4,29.66,South,180,23.0,29.0,26,0.00,,,0.01,meteohub,2013-08-02 16:10:00,
2013-08-02 17:16:00,70.0,36.3,29.66,South,180,17.0,29.0,29,0.00,,,0.01,meteohub,2013-08-02 16:16:00,
2013-08-02 17:21:00,70.2,35.6,29.66,SSW,202,18.0,29.0,28,0.00,,,0.01,meteohub,2013-08-02 16:21:00,
2013-08-02 17:26:00,69.8,34.3,29.66,South,180,23.0,27.0,27,0.00,,,0.01,meteohub,2013-08-02 16:26:00,
2013-08-02 17:31:00,70.0,37.2,29.66,South,180,13.0,26.0,30,0.00,,,0.01,meteohub,2013-08-02 16:31:00,
2013-08-02 17:36:00,69.4,34.0,29.66,SSE,158,15.0,26.0,27,0.00,,,0.01,meteohub,2013-08-02 16:36:00,
2013-08-02 17:41:00,69.3,34.9,29.66,SSE,158,28.0,35.0,28,0.00,,,0.01,meteohub,2013-08-02 16:41:00,
2013-08-02 17:46:00,68.5,35.1,29.66,South,180,29.0,38.0,29,0.00,,,0.01,meteohub,2013-08-02 16:46:00,
2013-08-02 17:51:00,68.0,34.5,29.66,South,180,26.0,38.0,29,0.00,,,0.01,meteohub,2013-08-02 16:51:00,
2013-08-02 17:56:00,68.0,36.3,29.66,SSE,158,23.0,38.0,31,0.00,,,0.01,meteohub,2013-08-02 16:56:00,
2013-08-02 18:02:00,68.2,33.8,29.66,South,180,40.0,40.0,28,0.00,,,0.01,meteohub,2013-08-02 17:02:00,
2013-08-02 18:07:00,68.2,35.6,29.66,South,180,19.0,40.0,30,0.00,,,0.01,meteohub,2013-08-02 17:07:00,
2013-08-02 18:12:00,67.8,34.5,29.66,South,180,20.0,40.0,29,0.00,,,0.01,meteohub,2013-08-02 17:12:00,
2013-08-02 18:17:00,68.0,35.4,29.66,SSW,202,21.0,40.0,30,0.00,,,0.01,meteohub,2013-08-02 17:17:00,
2013-08-02 18:22:00,68.2,34.7,29.66,South,180,27.0,33.0,29,0.00,,,0.01,meteohub,2013-08-02 17:22:00,
2013-08-02 18:27:00,68.4,34.9,29.66,South,180,24.0,33.0,29,0.00,,,0.01,meteohub,2013-08-02 17:27:00,
2013-08-02 18:32:00,68.2,33.8,29.66,South,180,20.0,33.0,28,0.00,,,0.01,meteohub,2013-08-02 17:32:00,
2013-08-02 18:37:00,67.5,34.2,29.66,South,180,15.0,33.0,29,0.00,,,0.01,meteohub,2013-08-02 17:37:00,
2013-08-02 18:43:00,67.5,35.8,29.66,South,180,13.0,29.0,31,0.00,,,0.01,meteohub,2013-08-02 17:43:00,
2013-08-02 18:48:00,67.5,35.8,29.66,South,180,19.0,29.0,31,0.00,,,0.01,meteohub,2013-08-02 17:48:00,
2013-08-02 18:53:00,67.1,34.7,29.66,South,180,17.0,30.0,30,0.00,,,0.01,meteohub,2013-08-02 17:53:00,
2013-08-02 18:58:00,66.9,36.1,29.66,South,180,23.0,30.0,32,0.00,,,0.01,meteohub,2013-08-02 17:58:00,
2013-08-02 19:03:00,66.6,35.8,29.66,SSW,202,19.0,30.0,32,0.00,,,0.01,meteohub,2013-08-02 18:03:00,
2013-08-02 19:09:00,66.0,36.9,29.66,South,180,28.0,28.0,34,0.00,,,0.01,meteohub,2013-08-02 18:09:00,
2013-08-02 19:14:00,65.7,36.5,29.66,South,180,17.0,28.0,34,0.00,,,0.01,meteohub,2013-08-02 18:14:00,
2013-08-02 19:19:00,65.5,37.2,29.66,South,180,17.0,28.0,35,0.00,,,0.01,meteohub,2013-08-02 18:19:00,
2013-08-02 19:24:00,65.1,36.9,29.66,South,180,25.0,28.0,35,0.00,,,0.01,meteohub,2013-08-02 18:24:00,
2013-08-02 19:29:00,64.8,37.2,29.66,South,180,21.0,28.0,36,0.00,,,0.01,meteohub,2013-08-02 18:29:00,
2013-08-02 19:34:00,64.8,37.9,29.66,South,180,10.0,28.0,37,0.00,,,0.01,meteohub,2013-08-02 18:34:00,
2013-08-02 19:40:00,64.4,37.6,29.66,South,180,20.0,27.0,37,0.00,,,0.01,meteohub,2013-08-02 18:40:00,
2013-08-02 19:45:00,64.4,38.3,29.66,South,180,17.0,27.0,38,0.00,,,0.01,meteohub,2013-08-02 18:45:00,
2013-08-02 19:50:00,64.2,38.8,29.66,SSW,202,22.0,27.0,39,0.00,,,0.01,meteohub,2013-08-02 18:50:00,
2013-08-02 19:56:00,64.2,38.8,29.66,South,180,15.0,24.0,39,0.00,,,0.01,meteohub,2013-08-02 18:56:00,
2013-08-02 20:01:00,64.2,38.1,29.66,South,180,16.0,24.0,38,0.00,,,0.01,meteohub,2013-08-02 19:01:00,
2013-08-02 20:06:00,64.2,38.8,29.66,South,180,14.0,24.0,39,0.00,,,0.01,meteohub,2013-08-02 19:06:00,
2013-08-02 20:11:00,64.0,39.2,29.66,South,180,11.0,23.0,40,0.00,,,0.01,meteohub,2013-08-02 19:11:00,
2013-08-02 20:16:00,63.9,39.7,29.66,SSW,202,18.0,18.0,41,0.00,,,0.01,meteohub,2013-08-02 19:16:00,
2013-08-02 20:21:00,63.9,40.3,29.66,South,180,11.0,20.0,42,0.00,,,0.01,meteohub,2013-08-02 19:21:00,
2013-08-02 20:26:00,63.7,40.1,29.66,South,180,13.0,20.0,42,0.00,,,0.01,meteohub,2013-08-02 19:26:00,
2013-08-02 20:31:00,63.5,40.6,29.66,SSW,202,13.0,20.0,43,0.00,,,0.01,meteohub,2013-08-02 19:31:00,
2013-08-02 20:36:00,63.5,41.2,29.66,South,180,13.0,19.0,44,0.00,,,0.01,meteohub,2013-08-02 19:36:00,
2013-08-02 20:41:00,63.1,40.8,29.66,South,180,15.0,19.0,44,0.00,,,0.01,meteohub,2013-08-02 19:41:00,
2013-08-02 20:46:00,63.0,41.4,29.66,South,180,12.0,18.0,45,0.00,,,0.01,meteohub,2013-08-02 19:46:00,
2013-08-02 20:51:00,62.6,41.5,29.66,SSE,158,10.0,17.0,46,0.00,,,0.01,meteohub,2013-08-02 19:51:00,
2013-08-02 20:57:00,62.4,41.9,29.66,SSW,202,13.0,17.0,47,0.00,,,0.01,meteohub,2013-08-02 19:57:00,
2013-08-02 21:02:00,62.2,42.8,29.66,South,180,13.0,17.0,49,0.00,,,0.01,meteohub,2013-08-02 20:02:00,
2013-08-02 21:07:00,62.2,42.8,29.66,South,180,18.0,24.0,49,0.00,,,0.01,meteohub,2013-08-02 20:07:00,
2013-08-02 21:12:00,62.2,42.8,29.66,South,180,18.0,24.0,49,0.00,,,0.01,meteohub,2013-08-02 20:12:00,
2013-08-02 21:17:00,62.1,43.2,29.66,SSE,158,17.0,24.0,50,0.00,,,0.01,meteohub,2013-08-02 20:17:00,
2013-08-02 21:22:00,61.7,43.3,29.66,South,180,13.0,20.0,51,0.00,,,0.01,meteohub,2013-08-02 20:22:00,
2013-08-02 21:27:00,61.5,44.2,29.66,South,180,13.0,18.0,53,0.00,,,0.01,meteohub,2013-08-02 20:27:00,
2013-08-02 21:32:00,61.2,44.4,29.66,South,180,13.0,17.0,54,0.00,,,0.01,meteohub,2013-08-02 20:32:00,
2013-08-02 21:37:00,61.0,45.1,29.66,SSE,158,17.0,17.0,56,0.00,,,0.01,meteohub,2013-08-02 20:37:00,
2013-08-02 21:42:00,61.0,46.0,29.66,South,180,11.0,18.0,58,0.00,,,0.01,meteohub,2013-08-02 20:42:00,
2013-08-02 21:47:00,60.8,46.4,29.66,South,180,13.0,18.0,59,0.00,,,0.01,meteohub,2013-08-02 20:47:00,
2013-08-02 21:53:00,60.6,47.1,29.66,South,180,17.0,18.0,61,0.00,,,0.01,meteohub,2013-08-02 20:53:00,
2013-08-02 21:58:00,60.4,47.3,29.66,SSE,158,17.0,20.0,62,0.00,,,0.01,meteohub,2013-08-02 20:58:00,
2013-08-02 22:03:00,60.4,48.2,29.66,SSE,158,10.0,20.0,64,0.00,,,0.01,meteohub,2013-08-02 21:03:00,
2013-08-02 22:08:00,60.3,48.4,29.66,South,180,13.0,20.0,65,0.00,,,0.01,meteohub,2013-08-02 21:08:00,
2013-08-02 22:13:00,60.1,48.7,29.66,South,180,13.0,18.0,66,0.00,,,0.01,meteohub,2013-08-02 21:13:00,
2013-08-02 22:18:00,60.1,49.1,29.66,South,180,13.0,18.0,67,0.00,,,0.01,meteohub,2013-08-02 21:18:00,
2013-08-02 22:23:00,59.9,48.9,29.66,SSE,158,15.0,18.0,67,0.00,,,0.01,meteohub,2013-08-02 21:23:00,
2013-08-02 22:28:00,60.1,49.5,29.66,South,180,13.0,18.0,68,0.00,,,0.01,meteohub,2013-08-02 21:28:00,
2013-08-02 22:34:00,59.7,48.7,29.66,South,180,13.0,17.0,67,0.00,,,0.01,meteohub,2013-08-02 21:34:00,
2013-08-02 22:39:00,59.7,49.1,29.66,South,180,11.0,17.0,68,0.00,,,0.01,meteohub,2013-08-02 21:39:00,
2013-08-02 22:45:00,59.4,48.7,29.66,SSE,158,9.0,15.0,68,0.00,,,0.01,meteohub,2013-08-02 21:45:00,
2013-08-02 22:50:00,59.2,49.1,29.66,South,180,13.0,15.0,69,0.00,,,0.01,meteohub,2013-08-02 21:50:00,
2013-08-02 22:55:00,59.2,49.5,29.66,SSE,158,11.0,15.0,70,0.00,,,0.01,meteohub,2013-08-02 21:55:00,
2013-08-02 23:00:00,59.0,49.6,29.66,SSE,158,13.0,15.0,71,0.00,,,0.01,meteohub,2013-08-02 22:00:00,
2013-08-02 23:05:00,58.8,49.8,29.66,South,180,9.0,15.0,72,0.00,,,0.01,meteohub,2013-08-02 22:05:00,
2013-08-02 23:11:00,58.8,49.8,29.66,SSE,158,11.0,17.0,72,0.00,,,0.01,meteohub,2013-08-02 22:11:00,
2013-08-02 23:16:00,58.6,50.0,29.66,SSE,158,13.0,17.0,73,0.00,,,0.01,meteohub,2013-08-02 22:16:00,
2013-08-02 23:21:00,58.5,49.8,29.66,SSE,158,10.0,17.0,73,0.00,,,0.01,meteohub,2013-08-02 22:21:00,
2013-08-02 23:26:00,58.5,49.8,29.66,SSE,158,8.0,15.0,73,0.00,,,0.01,meteohub,2013-08-02 22:26:00,
2013-08-02 23:31:00,58.3,49.6,29.66,South,180,10.0,15.0,73,0.00,,,0.01,meteohub,2013-08-02 22:31:00,
2013-08-02 23:36:00,58.3,50.0,29.66,SSE,158,8.0,13.0,74,0.00,,,0.01,meteohub,2013-08-02 22:36:00,
2013-08-02 23:42:00,58.1,49.8,29.66,SSE,158,7.0,13.0,74,0.00,,,0.01,meteohub,2013-08-02 22:42:00,
2013-08-02 23:46:00,58.1,50.2,29.66,South,180,11.0,15.0,75,0.00,,,0.01,meteohub,2013-08-02 22:46:00,
2013-08-02 23:52:00,58.3,50.4,29.66,SSE,158,8.0,15.0,75,0.00,,,0.01,meteohub,2013-08-02 22:52:00,
2013-08-02 23:57:00,58.5,50.9,29.66,South,180,12.0,15.0,76,0.00,,,0.01,meteohub,2013-08-02 22:57:00,